Terminal Aerodrome Forecast
Issued by NWS

Home | Current Version | Previous Version | Text Only | Print | Product List | Glossary On
Versions: 1 2 3 4 5 6 7 8 9 10 11 12 13 14 15 16
000
FTUS46 KSGX 280520
TAFONT
TAF
KONT 280520Z 2806/2912 26007KT P6SM SKC
     FM281300 VRB04KT 5SM BR BKN009
     FM281500 VRB04KT 6SM HZ SKC
     FM282100 25012KT P6SM SKC
     FM290400 24005KT P6SM SKC=

USA.gov is the U.S. government's official web portal to all federal, state and local government web resources and services.